Terminal Aerodrome Forecast
Issued by NWS

Home | Current Version | Previous Version | Text Only | Print | Product List | Glossary On
Versions: 1 2 3 4 5 6 7 8 9 10 11 12 13 14 15 16 17 18 19 20 21 22 23 24 25 26 27 28
060
FTUS41 KOKX 251139
TAFGON
TAF
KGON 251139Z 2512/2612 VRB03KT P6SM SKC
     FM251400 16003KT P6SM SKC
     FM251700 14007KT P6SM SKC
     FM252200 12005KT P6SM FEW005
     FM260000 10004KT 3SM BR BKN005
     FM260200 09003KT 2SM BR OVC004=

USA.gov is the U.S. government's official web portal to all federal, state and local government web resources and services.